sensor_id;sensor_type;location;lat;lon;timestamp;P1;durP1;ratioP1;P2;durP2;ratioP2
37049;SDS011;22958;51.232;6.826;2023-02-01T00:01:30;41.00;;;10.53;;
37049;SDS011;22958;51.232;6.826;2023-02-01T00:03:56;28.70;;;8.47;;
37049;SDS011;22958;51.232;6.826;2023-02-01T00:06:22;40.08;;;10.02;;
37049;SDS011;22958;51.232;6.826;2023-02-01T00:08:47;38.50;;;9.57;;
37049;SDS011;22958;51.232;6.826;2023-02-01T00:11:13;33.37;;;10.33;;
37049;SDS011;22958;51.232;6.826;2023-02-01T00:13:40;26.70;;;11.20;;
37049;SDS011;22958;51.232;6.826;2023-02-01T00:16:39;29.33;;;10.20;;
37049;SDS011;22958;51.232;6.826;2023-02-01T00:18:59;33.10;;;11.55;;
37049;SDS011;22958;51.232;6.826;2023-02-01T00:21:27;47.03;;;12.38;;
37049;SDS011;22958;51.232;6.826;2023-02-01T00:23:53;42.15;;;12.02;;
37049;SDS011;22958;51.232;6.826;2023-02-01T00:29:04;28.17;;;11.75;;
37049;SDS011;22958;51.232;6.826;2023-02-01T00:31:31;34.03;;;13.00;;
37049;SDS011;22958;51.232;6.826;2023-02-01T00:33:57;45.35;;;13.98;;
37049;SDS011;22958;51.232;6.826;2023-02-01T00:36:23;34.63;;;13.73;;
37049;SDS011;22958;51.232;6.826;2023-02-01T00:38:49;38.80;;;14.40;;
37049;SDS011;22958;51.232;6.826;2023-02-01T00:41:16;57.37;;;15.37;;
37049;SDS011;22958;51.232;6.826;2023-02-01T00:43:43;46.75;;;15.38;;
37049;SDS011;22958;51.232;6.826;2023-02-01T00:46:10;38.45;;;14.63;;
37049;SDS011;22958;51.232;6.826;2023-02-01T00:48:37;39.55;;;12.73;;
37049;SDS011;22958;51.232;6.826;2023-02-01T00:51:07;34.00;;;13.23;;
37049;SDS011;22958;51.232;6.826;2023-02-01T00:53:37;33.45;;;12.23;;
37049;SDS011;22958;51.232;6.826;2023-02-01T00:56:03;49.27;;;13.53;;
37049;SDS011;22958;51.232;6.826;2023-02-01T01:01:08;31.33;;;10.77;;
37049;SDS011;22958;51.232;6.826;2023-02-01T01:03:36;33.85;;;11.23;;
37049;SDS011;22958;51.232;6.826;2023-02-01T01:06:14;47.22;;;11.93;;
37049;SDS011;22958;51.232;6.826;2023-02-01T01:08:41;43.83;;;9.83;;
37049;SDS011;22958;51.232;6.826;2023-02-01T01:11:08;31.15;;;9.75;;
37049;SDS011;22958;51.232;6.826;2023-02-01T01:13:35;38.75;;;9.55;;
37049;SDS011;22958;51.232;6.826;2023-02-01T01:16:02;31.03;;;9.13;;
37049;SDS011;22958;51.232;6.826;2023-02-01T01:18:31;33.22;;;8.82;;
37049;SDS011;22958;51.232;6.826;2023-02-01T01:20:58;28.63;;;7.95;;
37049;SDS011;22958;51.232;6.826;2023-02-01T01:23:24;31.08;;;9.27;;
37049;SDS011;22958;51.232;6.826;2023-02-01T01:25:50;44.10;;;8.57;;
37049;SDS011;22958;51.232;6.826;2023-02-01T01:28:16;37.85;;;8.30;;
37049;SDS011;22958;51.232;6.826;2023-02-01T01:30:42;28.60;;;7.97;;
37049;SDS011;22958;51.232;6.826;2023-02-01T01:33:07;31.93;;;7.73;;
37049;SDS011;22958;51.232;6.826;2023-02-01T01:35:33;42.60;;;8.03;;
37049;SDS011;22958;51.232;6.826;2023-02-01T01:37:59;28.35;;;6.88;;
37049;SDS011;22958;51.232;6.826;2023-02-01T01:40:26;42.40;;;7.43;;
37049;SDS011;22958;51.232;6.826;2023-02-01T01:42:52;29.58;;;6.15;;
37049;SDS011;22958;51.232;6.826;2023-02-01T01:48:01;32.40;;;8.10;;
37049;SDS011;22958;51.232;6.826;2023-02-01T01:50:31;28.42;;;6.60;;
37049;SDS011;22958;51.232;6.826;2023-02-01T01:53:01;30.88;;;5.07;;
37049;SDS011;22958;51.232;6.826;2023-02-01T01:55:32;31.52;;;5.78;;
37049;SDS011;22958;51.232;6.826;2023-02-01T01:58:02;23.40;;;4.95;;
37049;SDS011;22958;51.232;6.826;2023-02-01T02:00:31;22.40;;;5.15;;
37049;SDS011;22958;51.232;6.826;2023-02-01T02:03:03;25.52;;;5.03;;
37049;SDS011;22958;51.232;6.826;2023-02-01T02:05:36;30.35;;;5.88;;
37049;SDS011;22958;51.232;6.826;2023-02-01T02:08:02;39.27;;;6.07;;
37049;SDS011;22958;51.232;6.826;2023-02-01T02:10:28;30.80;;;5.43;;
37049;SDS011;22958;51.232;6.826;2023-02-01T02:13:13;32.90;;;4.57;;
37049;SDS011;22958;51.232;6.826;2023-02-01T02:16:02;34.90;;;5.10;;
37049;SDS011;22958;51.232;6.826;2023-02-01T02:29:36;27.17;;;4.05;;
37049;SDS011;22958;51.232;6.826;2023-02-01T02:38:16;27.63;;;5.85;;
37049;SDS011;22958;51.232;6.826;2023-02-01T02:41:10;29.52;;;5.60;;
37049;SDS011;22958;51.232;6.826;2023-02-01T02:44:07;24.23;;;5.80;;
37049;SDS011;22958;51.232;6.826;2023-02-01T02:46:56;23.45;;;4.22;;
37049;SDS011;22958;51.232;6.826;2023-02-01T02:50:33;23.85;;;4.38;;
37049;SDS011;22958;51.232;6.826;2023-02-01T02:53:17;22.50;;;3.90;;
37049;SDS011;22958;51.232;6.826;2023-02-01T02:56:22;32.45;;;5.15;;
37049;SDS011;22958;51.232;6.826;2023-02-01T02:59:08;43.17;;;5.28;;
37049;SDS011;22958;51.232;6.826;2023-02-01T03:01:54;46.33;;;4.63;;
37049;SDS011;22958;51.232;6.826;2023-02-01T03:04:39;37.80;;;4.93;;
37049;SDS011;22958;51.232;6.826;2023-02-01T03:07:12;31.63;;;4.63;;
37049;SDS011;22958;51.232;6.826;2023-02-01T03:09:40;30.20;;;4.70;;
37049;SDS011;22958;51.232;6.826;2023-02-01T03:12:11;38.53;;;4.72;;
37049;SDS011;22958;51.232;6.826;2023-02-01T03:14:57;31.08;;;6.05;;
37049;SDS011;22958;51.232;6.826;2023-02-01T03:17:32;25.80;;;4.95;;
37049;SDS011;22958;51.232;6.826;2023-02-01T03:20:04;32.75;;;4.97;;
37049;SDS011;22958;51.232;6.826;2023-02-01T03:22:32;26.27;;;4.30;;
37049;SDS011;22958;51.232;6.826;2023-02-01T03:25:05;31.75;;;4.55;;
37049;SDS011;22958;51.232;6.826;2023-02-01T03:27:47;28.35;;;4.65;;
37049;SDS011;22958;51.232;6.826;2023-02-01T03:32:49;30.33;;;4.85;;
37049;SDS011;22958;51.232;6.826;2023-02-01T03:35:44;25.25;;;4.82;;
37049;SDS011;22958;51.232;6.826;2023-02-01T03:38:32;42.35;;;6.30;;
37049;SDS011;22958;51.232;6.826;2023-02-01T03:41:23;28.50;;;4.72;;
37049;SDS011;22958;51.232;6.826;2023-02-01T03:44:13;29.80;;;5.53;;
37049;SDS011;22958;51.232;6.826;2023-02-01T03:46:52;29.90;;;4.88;;
37049;SDS011;22958;51.232;6.826;2023-02-01T03:49:26;25.27;;;4.28;;
37049;SDS011;22958;51.232;6.826;2023-02-01T03:51:55;30.63;;;5.88;;
37049;SDS011;22958;51.232;6.826;2023-02-01T03:54:23;20.08;;;3.83;;
37049;SDS011;22958;51.232;6.826;2023-02-01T03:56:50;24.48;;;4.10;;
37049;SDS011;22958;51.232;6.826;2023-02-01T03:59:18;34.40;;;5.15;;
37049;SDS011;22958;51.232;6.826;2023-02-01T04:01:44;29.03;;;4.23;;
37049;SDS011;22958;51.232;6.826;2023-02-01T04:04:10;36.23;;;4.23;;
37049;SDS011;22958;51.232;6.826;2023-02-01T04:06:35;37.20;;;4.40;;
37049;SDS011;22958;51.232;6.826;2023-02-01T04:09:01;26.67;;;4.70;;
37049;SDS011;22958;51.232;6.826;2023-02-01T04:11:27;34.63;;;4.85;;
37049;SDS011;22958;51.232;6.826;2023-02-01T04:13:54;33.72;;;4.75;;
37049;SDS011;22958;51.232;6.826;2023-02-01T04:16:19;28.50;;;4.70;;
37049;SDS011;22958;51.232;6.826;2023-02-01T04:18:45;32.27;;;4.77;;
37049;SDS011;22958;51.232;6.826;2023-02-01T04:21:10;27.87;;;4.17;;
37049;SDS011;22958;51.232;6.826;2023-02-01T04:23:36;27.07;;;5.13;;
37049;SDS011;22958;51.232;6.826;2023-02-01T04:26:02;30.27;;;4.77;;
37049;SDS011;22958;51.232;6.826;2023-02-01T04:28:29;38.65;;;5.40;;
37049;SDS011;22958;51.232;6.826;2023-02-01T04:30:55;33.28;;;5.00;;
37049;SDS011;22958;51.232;6.826;2023-02-01T04:33:21;27.33;;;4.60;;
37049;SDS011;22958;51.232;6.826;2023-02-01T04:35:47;41.00;;;4.57;;
37049;SDS011;22958;51.232;6.826;2023-02-01T04:38:12;29.10;;;4.87;;
37049;SDS011;22958;51.232;6.826;2023-02-01T04:40:38;32.87;;;4.57;;
37049;SDS011;22958;51.232;6.826;2023-02-01T04:43:04;36.17;;;4.30;;
37049;SDS011;22958;51.232;6.826;2023-02-01T04:45:29;43.73;;;5.43;;
37049;SDS011;22958;51.232;6.826;2023-02-01T04:47:55;31.23;;;4.43;;
37049;SDS011;22958;51.232;6.826;2023-02-01T04:50:21;28.87;;;5.20;;
37049;SDS011;22958;51.232;6.826;2023-02-01T04:52:48;36.80;;;5.00;;
37049;SDS011;22958;51.232;6.826;2023-02-01T04:55:14;30.40;;;4.43;;
37049;SDS011;22958;51.232;6.826;2023-02-01T04:57:39;39.13;;;5.13;;
37049;SDS011;22958;51.232;6.826;2023-02-01T05:00:06;36.17;;;5.37;;
37049;SDS011;22958;51.232;6.826;2023-02-01T05:02:33;30.77;;;5.00;;
37049;SDS011;22958;51.232;6.826;2023-02-01T05:04:59;25.38;;;4.60;;
37049;SDS011;22958;51.232;6.826;2023-02-01T05:07:25;37.83;;;5.13;;
37049;SDS011;22958;51.232;6.826;2023-02-01T05:09:51;36.87;;;5.57;;
37049;SDS011;22958;51.232;6.826;2023-02-01T05:12:16;25.53;;;4.47;;
37049;SDS011;22958;51.232;6.826;2023-02-01T05:15:01;50.33;;;7.88;;
37049;SDS011;22958;51.232;6.826;2023-02-01T05:17:26;39.37;;;4.40;;
37049;SDS011;22958;51.232;6.826;2023-02-01T05:19:51;31.83;;;4.33;;
37049;SDS011;22958;51.232;6.826;2023-02-01T05:22:17;38.43;;;5.20;;
37049;SDS011;22958;51.232;6.826;2023-02-01T05:24:43;23.97;;;4.23;;
37049;SDS011;22958;51.232;6.826;2023-02-01T05:27:09;32.90;;;5.35;;
37049;SDS011;22958;51.232;6.826;2023-02-01T05:29:34;48.60;;;5.17;;
37049;SDS011;22958;51.232;6.826;2023-02-01T05:32:00;36.07;;;5.10;;
37049;SDS011;22958;51.232;6.826;2023-02-01T05:34:25;42.30;;;5.57;;
37049;SDS011;22958;51.232;6.826;2023-02-01T05:36:51;33.47;;;4.93;;
37049;SDS011;22958;51.232;6.826;2023-02-01T05:39:16;33.97;;;4.83;;
37049;SDS011;22958;51.232;6.826;2023-02-01T05:41:42;55.60;;;6.07;;
37049;SDS011;22958;51.232;6.826;2023-02-01T05:44:07;34.30;;;4.50;;
37049;SDS011;22958;51.232;6.826;2023-02-01T05:46:34;42.10;;;6.07;;
37049;SDS011;22958;51.232;6.826;2023-02-01T05:49:00;44.50;;;5.85;;
37049;SDS011;22958;51.232;6.826;2023-02-01T05:51:25;30.80;;;5.53;;
37049;SDS011;22958;51.232;6.826;2023-02-01T05:53:51;38.70;;;5.17;;
37049;SDS011;22958;51.232;6.826;2023-02-01T05:56:16;35.30;;;4.93;;
37049;SDS011;22958;51.232;6.826;2023-02-01T05:58:42;30.07;;;4.20;;
37049;SDS011;22958;51.232;6.826;2023-02-01T06:01:07;41.53;;;5.03;;
37049;SDS011;22958;51.232;6.826;2023-02-01T06:03:33;52.20;;;6.57;;
37049;SDS011;22958;51.232;6.826;2023-02-01T06:05:58;35.60;;;5.10;;
37049;SDS011;22958;51.232;6.826;2023-02-01T06:08:25;40.50;;;4.45;;
37049;SDS011;22958;51.232;6.826;2023-02-01T06:10:56;40.83;;;5.10;;
37049;SDS011;22958;51.232;6.826;2023-02-01T06:13:23;38.55;;;4.05;;
37049;SDS011;22958;51.232;6.826;2023-02-01T06:15:48;40.60;;;4.47;;
37049;SDS011;22958;51.232;6.826;2023-02-01T06:18:14;39.43;;;7.00;;
37049;SDS011;22958;51.232;6.826;2023-02-01T06:20:40;33.42;;;4.30;;
37049;SDS011;22958;51.232;6.826;2023-02-01T06:23:06;36.73;;;5.40;;
37049;SDS011;22958;51.232;6.826;2023-02-01T06:25:31;39.67;;;5.53;;
37049;SDS011;22958;51.232;6.826;2023-02-01T06:27:59;37.00;;;4.70;;
37049;SDS011;22958;51.232;6.826;2023-02-01T06:30:25;36.95;;;5.40;;
37049;SDS011;22958;51.232;6.826;2023-02-01T06:32:51;38.37;;;4.90;;
37049;SDS011;22958;51.232;6.826;2023-02-01T06:35:19;25.08;;;4.35;;
37049;SDS011;22958;51.232;6.826;2023-02-01T06:37:45;25.70;;;4.37;;
37049;SDS011;22958;51.232;6.826;2023-02-01T06:40:11;34.37;;;4.93;;
37049;SDS011;22958;51.232;6.826;2023-02-01T06:42:36;38.27;;;5.67;;
37049;SDS011;22958;51.232;6.826;2023-02-01T06:45:02;22.10;;;4.17;;
37049;SDS011;22958;51.232;6.826;2023-02-01T06:47:28;35.07;;;4.73;;
37049;SDS011;22958;51.232;6.826;2023-02-01T06:49:53;33.30;;;4.97;;
37049;SDS011;22958;51.232;6.826;2023-02-01T06:52:19;40.50;;;5.03;;
37049;SDS011;22958;51.232;6.826;2023-02-01T06:54:44;30.17;;;4.47;;
37049;SDS011;22958;51.232;6.826;2023-02-01T06:57:10;52.93;;;4.67;;
37049;SDS011;22958;51.232;6.826;2023-02-01T06:59:36;27.80;;;4.43;;
37049;SDS011;22958;51.232;6.826;2023-02-01T07:02:01;45.17;;;5.10;;
37049;SDS011;22958;51.232;6.826;2023-02-01T07:04:27;37.47;;;4.77;;
37049;SDS011;22958;51.232;6.826;2023-02-01T07:06:53;31.23;;;5.37;;
37049;SDS011;22958;51.232;6.826;2023-02-01T07:09:18;44.03;;;5.37;;
37049;SDS011;22958;51.232;6.826;2023-02-01T07:11:44;38.60;;;5.30;;
37049;SDS011;22958;51.232;6.826;2023-02-01T07:14:10;42.80;;;5.70;;
37049;SDS011;22958;51.232;6.826;2023-02-01T07:16:35;28.52;;;5.18;;
37049;SDS011;22958;51.232;6.826;2023-02-01T07:19:01;41.77;;;5.07;;
37049;SDS011;22958;51.232;6.826;2023-02-01T07:21:27;27.57;;;4.57;;
37049;SDS011;22958;51.232;6.826;2023-02-01T07:23:53;49.80;;;6.27;;
37049;SDS011;22958;51.232;6.826;2023-02-01T07:26:19;35.42;;;5.40;;
37049;SDS011;22958;51.232;6.826;2023-02-01T07:28:45;39.97;;;5.63;;
37049;SDS011;22958;51.232;6.826;2023-02-01T07:31:12;38.30;;;4.43;;
37049;SDS011;22958;51.232;6.826;2023-02-01T07:33:46;39.38;;;4.80;;
37049;SDS011;22958;51.232;6.826;2023-02-01T07:36:14;37.83;;;5.57;;
37049;SDS011;22958;51.232;6.826;2023-02-01T07:38:41;31.05;;;4.78;;
37049;SDS011;22958;51.232;6.826;2023-02-01T07:41:07;30.58;;;4.78;;
37049;SDS011;22958;51.232;6.826;2023-02-01T07:43:33;36.55;;;4.78;;
37049;SDS011;22958;51.232;6.826;2023-02-01T07:45:59;35.47;;;5.05;;
37049;SDS011;22958;51.232;6.826;2023-02-01T07:48:25;26.93;;;4.23;;
37049;SDS011;22958;51.232;6.826;2023-02-01T07:50:58;33.13;;;5.32;;
37049;SDS011;22958;51.232;6.826;2023-02-01T07:53:25;35.38;;;4.68;;
37049;SDS011;22958;51.232;6.826;2023-02-01T07:55:51;43.60;;;6.30;;
37049;SDS011;22958;51.232;6.826;2023-02-01T07:58:17;31.67;;;4.50;;
37049;SDS011;22958;51.232;6.826;2023-02-01T08:00:42;40.37;;;5.80;;
37049;SDS011;22958;51.232;6.826;2023-02-01T08:03:26;37.08;;;5.50;;
37049;SDS011;22958;51.232;6.826;2023-02-01T08:05:55;31.53;;;4.37;;
37049;SDS011;22958;51.232;6.826;2023-02-01T08:08:21;37.33;;;5.70;;
37049;SDS011;22958;51.232;6.826;2023-02-01T08:10:46;35.22;;;4.68;;
37049;SDS011;22958;51.232;6.826;2023-02-01T08:13:12;38.17;;;4.67;;
37049;SDS011;22958;51.232;6.826;2023-02-01T08:15:38;36.60;;;4.73;;
37049;SDS011;22958;51.232;6.826;2023-02-01T08:18:03;28.57;;;5.53;;
37049;SDS011;22958;51.232;6.826;2023-02-01T08:20:29;31.93;;;4.90;;
37049;SDS011;22958;51.232;6.826;2023-02-01T08:22:55;44.27;;;6.17;;
37049;SDS011;22958;51.232;6.826;2023-02-01T08:25:21;43.67;;;5.30;;
37049;SDS011;22958;51.232;6.826;2023-02-01T08:27:48;37.78;;;4.32;;
37049;SDS011;22958;51.232;6.826;2023-02-01T08:30:14;34.07;;;5.50;;
37049;SDS011;22958;51.232;6.826;2023-02-01T08:32:39;39.97;;;5.27;;
37049;SDS011;22958;51.232;6.826;2023-02-01T08:35:05;36.23;;;5.30;;
37049;SDS011;22958;51.232;6.826;2023-02-01T08:37:31;49.87;;;7.27;;
37049;SDS011;22958;51.232;6.826;2023-02-01T08:39:56;38.60;;;5.90;;
37049;SDS011;22958;51.232;6.826;2023-02-01T08:42:22;50.20;;;6.03;;
37049;SDS011;22958;51.232;6.826;2023-02-01T08:45:06;27.50;;;4.82;;
37049;SDS011;22958;51.232;6.826;2023-02-01T08:47:33;33.25;;;4.53;;
37049;SDS011;22958;51.232;6.826;2023-02-01T08:49:59;30.42;;;5.18;;
37049;SDS011;22958;51.232;6.826;2023-02-01T08:52:24;47.43;;;5.50;;
37049;SDS011;22958;51.232;6.826;2023-02-01T08:54:50;40.33;;;7.00;;
37049;SDS011;22958;51.232;6.826;2023-02-01T08:57:15;36.50;;;5.23;;
37049;SDS011;22958;51.232;6.826;2023-02-01T08:59:41;31.17;;;5.40;;
37049;SDS011;22958;51.232;6.826;2023-02-01T09:02:11;58.33;;;8.10;;
37049;SDS011;22958;51.232;6.826;2023-02-01T09:04:37;36.33;;;5.40;;
37049;SDS011;22958;51.232;6.826;2023-02-01T09:07:03;46.97;;;5.93;;
37049;SDS011;22958;51.232;6.826;2023-02-01T09:09:28;40.83;;;5.70;;
37049;SDS011;22958;51.232;6.826;2023-02-01T09:11:54;37.17;;;5.43;;
37049;SDS011;22958;51.232;6.826;2023-02-01T09:14:19;36.37;;;5.47;;
37049;SDS011;22958;51.232;6.826;2023-02-01T09:16:45;37.73;;;6.33;;
37049;SDS011;22958;51.232;6.826;2023-02-01T09:19:10;31.17;;;5.40;;
37049;SDS011;22958;51.232;6.826;2023-02-01T09:21:36;42.03;;;5.77;;
37049;SDS011;22958;51.232;6.826;2023-02-01T09:24:01;28.60;;;5.03;;
37049;SDS011;22958;51.232;6.826;2023-02-01T09:26:27;40.07;;;5.13;;
37049;SDS011;22958;51.232;6.826;2023-02-01T09:28:53;34.97;;;5.00;;
37049;SDS011;22958;51.232;6.826;2023-02-01T09:31:18;27.60;;;4.57;;
37049;SDS011;22958;51.232;6.826;2023-02-01T09:33:44;30.30;;;5.63;;
37049;SDS011;22958;51.232;6.826;2023-02-01T09:36:09;30.20;;;4.87;;
37049;SDS011;22958;51.232;6.826;2023-02-01T09:38:35;46.80;;;6.03;;
37049;SDS011;22958;51.232;6.826;2023-02-01T09:41:01;43.03;;;6.60;;
37049;SDS011;22958;51.232;6.826;2023-02-01T09:46:23;37.67;;;5.53;;
37049;SDS011;22958;51.232;6.826;2023-02-01T09:48:55;29.75;;;5.60;;
37049;SDS011;22958;51.232;6.826;2023-02-01T09:51:24;47.72;;;7.60;;
37049;SDS011;22958;51.232;6.826;2023-02-01T09:54:06;32.33;;;5.43;;
37049;SDS011;22958;51.232;6.826;2023-02-01T09:56:41;35.08;;;5.35;;
37049;SDS011;22958;51.232;6.826;2023-02-01T10:01:48;30.83;;;5.85;;
37049;SDS011;22958;51.232;6.826;2023-02-01T10:04:14;42.97;;;5.73;;
37049;SDS011;22958;51.232;6.826;2023-02-01T10:09:38;31.90;;;5.43;;
37049;SDS011;22958;51.232;6.826;2023-02-01T10:28:52;32.90;;;4.65;;
37049;SDS011;22958;51.232;6.826;2023-02-01T10:31:23;32.22;;;5.13;;
37049;SDS011;22958;51.232;6.826;2023-02-01T10:34:01;40.25;;;6.35;;
37049;SDS011;22958;51.232;6.826;2023-02-01T10:39:56;28.42;;;5.32;;
37049;SDS011;22958;51.232;6.826;2023-02-01T10:42:25;44.10;;;5.75;;
37049;SDS011;22958;51.232;6.826;2023-02-01T10:44:52;40.45;;;5.88;;
37049;SDS011;22958;51.232;6.826;2023-02-01T10:47:20;40.13;;;5.63;;
37049;SDS011;22958;51.232;6.826;2023-02-01T10:49:52;31.53;;;5.77;;
37049;SDS011;22958;51.232;6.826;2023-02-01T10:52:36;31.15;;;5.13;;
37049;SDS011;22958;51.232;6.826;2023-02-01T10:57:59;37.85;;;4.50;;
37049;SDS011;22958;51.232;6.826;2023-02-01T11:00:28;46.67;;;5.50;;
37049;SDS011;22958;51.232;6.826;2023-02-01T11:05:56;31.85;;;4.80;;
37049;SDS011;22958;51.232;6.826;2023-02-01T11:08:22;44.80;;;5.03;;
37049;SDS011;22958;51.232;6.826;2023-02-01T11:10:49;25.80;;;4.57;;
37049;SDS011;22958;51.232;6.826;2023-02-01T11:13:30;27.88;;;4.28;;
37049;SDS011;22958;51.232;6.826;2023-02-01T11:15:58;28.50;;;3.95;;
37049;SDS011;22958;51.232;6.826;2023-02-01T11:18:28;32.53;;;4.47;;
37049;SDS011;22958;51.232;6.826;2023-02-01T11:20:55;31.60;;;3.70;;
37049;SDS011;22958;51.232;6.826;2023-02-01T11:23:22;29.77;;;4.57;;
37049;SDS011;22958;51.232;6.826;2023-02-01T11:28:26;36.00;;;4.47;;
37049;SDS011;22958;51.232;6.826;2023-02-01T11:30:59;25.88;;;4.10;;
37049;SDS011;22958;51.232;6.826;2023-02-01T11:33:30;24.60;;;4.65;;
37049;SDS011;22958;51.232;6.826;2023-02-01T11:36:00;32.72;;;5.10;;
37049;SDS011;22958;51.232;6.826;2023-02-01T11:38:32;29.15;;;4.45;;
37049;SDS011;22958;51.232;6.826;2023-02-01T11:41:17;28.02;;;4.00;;
37049;SDS011;22958;51.232;6.826;2023-02-01T11:43:56;34.40;;;4.70;;
37049;SDS011;22958;51.232;6.826;2023-02-01T11:46:31;17.70;;;3.92;;
37049;SDS011;22958;51.232;6.826;2023-02-01T11:49:13;24.55;;;4.18;;
37049;SDS011;22958;51.232;6.826;2023-02-01T11:54:15;31.23;;;4.47;;
37049;SDS011;22958;51.232;6.826;2023-02-01T11:57:33;27.02;;;4.55;;
37049;SDS011;22958;51.232;6.826;2023-02-01T11:59:49;38.03;;;5.32;;
37049;SDS011;22958;51.232;6.826;2023-02-01T12:08:26;33.10;;;5.30;;
37049;SDS011;22958;51.232;6.826;2023-02-01T12:11:17;20.80;;;4.20;;
37049;SDS011;22958;51.232;6.826;2023-02-01T12:14:05;15.23;;;3.88;;
37049;SDS011;22958;51.232;6.826;2023-02-01T12:19:31;33.42;;;5.28;;
37049;SDS011;22958;51.232;6.826;2023-02-01T12:22:12;24.98;;;4.93;;
37049;SDS011;22958;51.232;6.826;2023-02-01T12:24:49;30.13;;;5.70;;
37049;SDS011;22958;51.232;6.826;2023-02-01T12:27:41;28.60;;;5.07;;
37049;SDS011;22958;51.232;6.826;2023-02-01T12:33:17;27.70;;;4.50;;
37049;SDS011;22958;51.232;6.826;2023-02-01T12:38:43;23.75;;;4.20;;
37049;SDS011;22958;51.232;6.826;2023-02-01T12:46:52;26.65;;;4.97;;
37049;SDS011;22958;51.232;6.826;2023-02-01T12:52:12;41.33;;;5.32;;
37049;SDS011;22958;51.232;6.826;2023-02-01T12:57:25;31.50;;;4.00;;
37049;SDS011;22958;51.232;6.826;2023-02-01T12:59:57;31.40;;;5.18;;
37049;SDS011;22958;51.232;6.826;2023-02-01T13:02:43;42.47;;;5.18;;
37049;SDS011;22958;51.232;6.826;2023-02-01T13:05:18;34.97;;;4.93;;
37049;SDS011;22958;51.232;6.826;2023-02-01T13:12:50;40.22;;;5.20;;
37049;SDS011;22958;51.232;6.826;2023-02-01T13:15:24;29.27;;;5.13;;
37049;SDS011;22958;51.232;6.826;2023-02-01T13:17:54;26.02;;;4.43;;
37049;SDS011;22958;51.232;6.826;2023-02-01T13:20:34;29.38;;;4.40;;
37049;SDS011;22958;51.232;6.826;2023-02-01T13:23:25;20.13;;;3.88;;
37049;SDS011;22958;51.232;6.826;2023-02-01T13:26:11;23.98;;;4.00;;
37049;SDS011;22958;51.232;6.826;2023-02-01T13:34:24;38.72;;;4.28;;
37049;SDS011;22958;51.232;6.826;2023-02-01T13:47:26;27.23;;;4.30;;
37049;SDS011;22958;51.232;6.826;2023-02-01T13:49:56;21.90;;;3.33;;
37049;SDS011;22958;51.232;6.826;2023-02-01T13:52:25;26.90;;;4.50;;
37049;SDS011;22958;51.232;6.826;2023-02-01T13:55:13;31.30;;;4.50;;
37049;SDS011;22958;51.232;6.826;2023-02-01T13:57:48;24.40;;;3.17;;
37049;SDS011;22958;51.232;6.826;2023-02-01T14:00:26;21.83;;;3.30;;
37049;SDS011;22958;51.232;6.826;2023-02-01T14:13:27;23.00;;;3.03;;
37049;SDS011;22958;51.232;6.826;2023-02-01T14:21:22;24.38;;;4.30;;
37049;SDS011;22958;51.232;6.826;2023-02-01T14:23:57;26.92;;;3.53;;
37049;SDS011;22958;51.232;6.826;2023-02-01T14:26:48;19.55;;;2.95;;
37049;SDS011;22958;51.232;6.826;2023-02-01T14:29:31;24.77;;;3.40;;
37049;SDS011;22958;51.232;6.826;2023-02-01T14:32:21;18.55;;;2.95;;
37049;SDS011;22958;51.232;6.826;2023-02-01T14:34:51;20.83;;;2.88;;
37049;SDS011;22958;51.232;6.826;2023-02-01T14:42:38;25.13;;;3.33;;
37049;SDS011;22958;51.232;6.826;2023-02-01T14:53:10;28.20;;;3.15;;
37049;SDS011;22958;51.232;6.826;2023-02-01T15:06:22;30.95;;;3.38;;
37049;SDS011;22958;51.232;6.826;2023-02-01T15:08:55;25.65;;;3.60;;
37049;SDS011;22958;51.232;6.826;2023-02-01T15:11:56;23.15;;;3.28;;
37049;SDS011;22958;51.232;6.826;2023-02-01T15:14:22;27.95;;;3.28;;
37049;SDS011;22958;51.232;6.826;2023-02-01T15:16:48;17.67;;;2.78;;
37049;SDS011;22958;51.232;6.826;2023-02-01T15:19:19;23.20;;;3.08;;
37049;SDS011;22958;51.232;6.826;2023-02-01T15:21:50;19.73;;;2.75;;
37049;SDS011;22958;51.232;6.826;2023-02-01T15:24:27;22.48;;;4.00;;
37049;SDS011;22958;51.232;6.826;2023-02-01T15:26:54;35.00;;;4.28;;
37049;SDS011;22958;51.232;6.826;2023-02-01T15:29:26;26.45;;;3.50;;
37049;SDS011;22958;51.232;6.826;2023-02-01T15:31:57;20.98;;;2.78;;
37049;SDS011;22958;51.232;6.826;2023-02-01T15:34:22;28.20;;;3.67;;
37049;SDS011;22958;51.232;6.826;2023-02-01T15:36:48;27.87;;;3.47;;
37049;SDS011;22958;51.232;6.826;2023-02-01T15:39:21;33.30;;;4.43;;
37049;SDS011;22958;51.232;6.826;2023-02-01T15:42:00;25.08;;;4.03;;
37049;SDS011;22958;51.232;6.826;2023-02-01T15:44:37;32.70;;;3.08;;
37049;SDS011;22958;51.232;6.826;2023-02-01T15:47:07;18.88;;;3.58;;
37049;SDS011;22958;51.232;6.826;2023-02-01T15:49:56;30.83;;;3.58;;
37049;SDS011;22958;51.232;6.826;2023-02-01T15:52:24;19.45;;;2.78;;
37049;SDS011;22958;51.232;6.826;2023-02-01T15:55:06;32.55;;;3.85;;
37049;SDS011;22958;51.232;6.826;2023-02-01T15:57:42;23.67;;;3.53;;
37049;SDS011;22958;51.232;6.826;2023-02-01T16:00:19;44.60;;;5.68;;
37049;SDS011;22958;51.232;6.826;2023-02-01T16:02:57;37.88;;;4.50;;
37049;SDS011;22958;51.232;6.826;2023-02-01T16:05:31;28.20;;;4.28;;
37049;SDS011;22958;51.232;6.826;2023-02-01T16:08:20;23.95;;;3.47;;
37049;SDS011;22958;51.232;6.826;2023-02-01T16:10:51;20.63;;;3.60;;
37049;SDS011;22958;51.232;6.826;2023-02-01T16:13:19;27.08;;;3.10;;
37049;SDS011;22958;51.232;6.826;2023-02-01T16:15:45;25.38;;;3.50;;
37049;SDS011;22958;51.232;6.826;2023-02-01T16:18:12;31.02;;;4.35;;
37049;SDS011;22958;51.232;6.826;2023-02-01T16:23:05;37.30;;;3.65;;
37049;SDS011;22958;51.232;6.826;2023-02-01T16:25:31;25.45;;;3.65;;
37049;SDS011;22958;51.232;6.826;2023-02-01T16:27:56;31.60;;;4.20;;
37049;SDS011;22958;51.232;6.826;2023-02-01T16:30:22;26.53;;;3.87;;
37049;SDS011;22958;51.232;6.826;2023-02-01T16:35:20;19.83;;;3.22;;
37049;SDS011;22958;51.232;6.826;2023-02-01T16:37:48;26.83;;;3.83;;
37049;SDS011;22958;51.232;6.826;2023-02-01T16:40:14;26.87;;;4.00;;
37049;SDS011;22958;51.232;6.826;2023-02-01T16:42:40;27.55;;;3.42;;
37049;SDS011;22958;51.232;6.826;2023-02-01T16:45:06;33.93;;;4.40;;
37049;SDS011;22958;51.232;6.826;2023-02-01T16:49:59;28.40;;;3.55;;
37049;SDS011;22958;51.232;6.826;2023-02-01T16:52:25;25.88;;;4.53;;
37049;SDS011;22958;51.232;6.826;2023-02-01T16:54:51;37.53;;;4.82;;
37049;SDS011;22958;51.232;6.826;2023-02-01T16:57:18;28.40;;;3.65;;
37049;SDS011;22958;51.232;6.826;2023-02-01T16:59:48;35.22;;;3.95;;
37049;SDS011;22958;51.232;6.826;2023-02-01T17:02:15;17.13;;;3.45;;
37049;SDS011;22958;51.232;6.826;2023-02-01T17:04:43;24.70;;;3.38;;
37049;SDS011;22958;51.232;6.826;2023-02-01T17:07:11;26.83;;;5.00;;
37049;SDS011;22958;51.232;6.826;2023-02-01T17:09:39;28.73;;;3.55;;
37049;SDS011;22958;51.232;6.826;2023-02-01T17:12:05;29.97;;;4.73;;
37049;SDS011;22958;51.232;6.826;2023-02-01T17:14:31;34.92;;;4.82;;
37049;SDS011;22958;51.232;6.826;2023-02-01T17:17:00;31.58;;;4.07;;
37049;SDS011;22958;51.232;6.826;2023-02-01T17:19:27;19.38;;;3.17;;
37049;SDS011;22958;51.232;6.826;2023-02-01T17:21:53;36.20;;;4.43;;
37049;SDS011;22958;51.232;6.826;2023-02-01T17:24:24;24.45;;;3.72;;
37049;SDS011;22958;51.232;6.826;2023-02-01T17:26:52;18.65;;;2.83;;
37049;SDS011;22958;51.232;6.826;2023-02-01T17:29:18;44.83;;;4.63;;
37049;SDS011;22958;51.232;6.826;2023-02-01T17:31:45;27.95;;;4.68;;
37049;SDS011;22958;51.232;6.826;2023-02-01T17:34:18;33.20;;;3.25;;